Time;durP1;ratioP1;P1;durP2;ratioP2;P2;SDS_P1;SDS_P2;PMS_P1;PMS_P2;Temp;Humidity;BMP_temperature;BMP_pressure;BME280_temperature;BME280_humidity;BME280_pressure;Samples;Min_cycle;Max_cycle;Signal;HPM_P1;HPM_P2
2024/01/07 00:02:09;;;;;;;7.80;4.50;;;;;;;-1.87;68.05;101857.38;109247;1253;137704;-65
2024/01/07 00:04:35;;;;;;;7.30;3.90;;;;;;;-1.90;67.76;101854.94;109334;1253;59945;-59
2024/01/07 00:07:03;;;;;;;6.20;3.70;;;;;;;-1.95;67.62;101863.56;109255;1254;137580;-65
2024/01/07 00:09:30;;;;;;;5.50;3.10;;;;;;;-1.98;67.40;101866.63;109309;1254;65098;-58
2024/01/07 00:11:56;;;;;;;5.00;2.80;;;;;;;-2.00;67.32;101868.45;106517;1253;72983;-59
2024/01/07 00:14:23;;;;;;;4.90;2.70;;;;;;;-2.05;67.18;101867.79;105552;1257;137660;-60
2024/01/07 00:16:50;;;;;;;7.60;3.40;;;;;;;-2.12;67.13;101871.80;105755;1256;62745;-60
2024/01/07 00:19:17;;;;;;;6.80;3.30;;;;;;;-2.17;67.18;101870.17;105578;1254;137985;-59
2024/01/07 00:21:43;;;;;;;6.90;3.80;;;;;;;-2.22;67.21;101872.64;105723;1255;65963;-60
2024/01/07 00:24:10;;;;;;;5.70;3.40;;;;;;;-2.28;67.14;101874.61;105730;1255;73134;-59
2024/01/07 00:26:37;;;;;;;7.70;4.30;;;;;;;-2.36;67.04;101877.46;105718;1254;61356;-60
2024/01/07 00:29:03;;;;;;;6.70;4.30;;;;;;;-2.45;67.15;101880.23;105679;1256;61228;-60
2024/01/07 00:31:30;;;;;;;7.70;4.90;;;;;;;-2.51;67.44;101884.80;105584;1254;137679;-65
2024/01/07 00:33:57;;;;;;;11.40;5.00;;;;;;;-2.52;67.55;101891.09;105662;1257;66478;-61
2024/01/07 00:36:23;;;;;;;8.00;4.20;;;;;;;-2.57;67.53;101891.62;105604;1256;138251;-65
2024/01/07 00:38:50;;;;;;;6.50;4.40;;;;;;;-2.62;67.72;101894.94;105667;1254;61372;-60
2024/01/07 00:41:17;;;;;;;6.10;4.20;;;;;;;-2.70;67.51;101896.23;105661;1256;61260;-61
2024/01/07 00:43:43;;;;;;;8.20;4.70;;;;;;;-2.78;67.54;101898.77;105551;1253;138060;-61
2024/01/07 00:46:10;;;;;;;7.40;4.30;;;;;;;-2.85;67.52;101896.48;105665;1256;66823;-61
2024/01/07 00:48:37;;;;;;;6.90;4.10;;;;;;;-2.91;67.51;101898.09;105610;1254;137842;-65
2024/01/07 00:51:04;;;;;;;6.30;4.00;;;;;;;-2.95;67.58;101903.13;105704;1254;61387;-64
2024/01/07 00:53:30;;;;;;;7.70;4.70;;;;;;;-3.00;67.66;101905.23;105719;1256;61330;-60
2024/01/07 00:55:57;;;;;;;6.80;4.40;;;;;;;-3.01;67.77;101904.58;105654;1255;138002;-60
2024/01/07 00:58:24;;;;;;;8.10;4.50;;;;;;;-3.01;67.89;101908.20;105744;1256;67357;-59
2024/01/07 01:00:53;;;;;;;6.80;4.40;;;;;;;-3.00;67.86;101911.36;105566;1254;138082;-60
2024/01/07 01:03:20;;;;;;;8.10;4.30;;;;;;;-3.02;67.84;101911.14;108830;1253;59576;-57
2024/01/07 01:05:47;;;;;;;7.60;4.70;;;;;;;-3.05;67.82;101911.23;109146;1253;61452;-63
2024/01/07 01:08:14;;;;;;;7.80;4.90;;;;;;;-3.05;67.83;101917.06;108993;1253;139014;-63
2024/01/07 01:10:41;;;;;;;7.50;4.60;;;;;;;-3.11;67.59;101912.55;109182;1253;64727;-64
2024/01/07 01:13:07;;;;;;;8.90;5.50;;;;;;;-3.16;67.51;101916.52;109288;1253;138166;-58
2024/01/07 01:15:34;;;;;;;10.50;4.90;;;;;;;-3.23;67.44;101916.13;109335;1255;59292;-63
2024/01/07 01:18:01;;;;;;;9.90;5.30;;;;;;;-3.29;67.60;101917.82;109147;1253;59062;-63
2024/01/07 01:20:28;;;;;;;8.20;5.50;;;;;;;-3.30;67.59;101919.75;109302;1251;137777;-63
2024/01/07 01:22:54;;;;;;;7.50;4.50;;;;;;;-3.29;67.89;101919.78;109332;1253;67704;-58
2024/01/07 01:25:21;;;;;;;8.40;4.50;;;;;;;-3.32;67.60;101927.81;108255;1253;137898;-59
2024/01/07 01:27:48;;;;;;;10.20;4.50;;;;;;;-3.38;67.51;101935.42;105601;1257;61387;-64
2024/01/07 01:30:14;;;;;;;10.30;4.40;;;;;;;-3.47;67.25;101931.63;105605;1257;139037;-63
2024/01/07 01:32:41;;;;;;;9.30;4.80;;;;;;;-3.57;67.26;101929.61;105660;1254;75412;-65
2024/01/07 01:35:08;;;;;;;8.30;4.80;;;;;;;-3.63;67.29;101933.26;105608;1254;67299;-64
2024/01/07 01:37:35;;;;;;;9.80;5.50;;;;;;;-3.67;67.31;101932.23;105669;1254;137642;-66
2024/01/07 01:40:03;;;;;;;11.90;6.80;;;;;;;-3.77;67.17;101937.77;105785;1254;61356;-65
2024/01/07 01:42:30;;;;;;;12.90;5.80;;;;;;;-3.85;67.22;101939.66;108916;1254;138927;-64
2024/01/07 01:44:59;;;;;;;11.40;6.40;;;;;;;-3.95;67.26;101936.45;109372;1252;75570;-58
2024/01/07 01:47:26;;;;;;;12.00;5.90;;;;;;;-4.01;67.35;101937.52;109234;1252;65677;-63
2024/01/07 01:49:52;;;;;;;12.30;6.90;;;;;;;-4.02;67.44;101940.52;109158;1252;138110;-64
2024/01/07 01:52:19;;;;;;;14.90;6.80;;;;;;;-4.00;67.60;101941.52;109178;1253;58984;-58
2024/01/07 01:54:45;;;;;;;12.20;6.40;;;;;;;-4.01;67.57;101939.79;109264;1253;139086;-64
2024/01/07 01:57:15;;;;;;;10.40;5.60;;;;;;;-4.00;67.73;101940.36;109233;1253;73776;-64
2024/01/07 01:59:42;;;;;;;10.10;5.40;;;;;;;-3.97;67.87;101941.34;109063;1253;66338;-59
2024/01/07 02:02:09;;;;;;;9.60;5.70;;;;;;;-3.95;67.94;101943.48;108978;1256;138626;-64
2024/01/07 02:04:36;;;;;;;11.50;6.20;;;;;;;-3.92;67.90;101946.36;109075;1253;59354;-58
2024/01/07 02:07:02;;;;;;;10.30;5.20;;;;;;;-3.95;67.72;101945.35;108923;1253;138520;-58
2024/01/07 02:09:29;;;;;;;13.90;6.00;;;;;;;-3.94;67.88;101947.17;109034;1253;73783;-59
2024/01/07 02:12:06;;;;;;;14.70;7.10;;;;;;;-3.91;67.91;101951.04;109066;1252;64644;-59
2024/01/07 02:14:32;;;;;;;15.20;6.90;;;;;;;-3.90;67.88;101951.29;108957;1253;138517;-59
2024/01/07 02:16:59;;;;;;;13.50;6.20;;;;;;;-3.87;67.92;101953.11;106382;1256;61157;-58
2024/01/07 02:19:26;;;;;;;9.40;5.70;;;;;;;-3.86;67.99;101954.60;105498;1252;138253;-60
2024/01/07 02:21:52;;;;;;;11.70;5.70;;;;;;;-3.87;67.92;101955.90;105472;1254;74202;-66
2024/01/07 02:24:19;;;;;;;8.40;5.40;;;;;;;-3.85;68.10;101955.45;105505;1256;138358;-59
2024/01/07 02:26:46;;;;;;;8.80;5.70;;;;;;;-3.81;68.30;101953.29;105611;1252;73880;-60
2024/01/07 02:29:13;;;;;;;8.40;4.90;;;;;;;-3.82;68.21;101957.31;105571;1253;61791;-60
2024/01/07 02:31:39;;;;;;;9.70;5.00;;;;;;;-3.89;68.15;101956.60;105497;1254;137730;-65
2024/01/07 02:34:06;;;;;;;7.70;5.30;;;;;;;-3.95;68.09;101958.33;105472;1257;72835;-65
2024/01/07 02:36:33;;;;;;;9.30;5.70;;;;;;;-4.02;68.45;101962.45;105343;1257;138602;-65
2024/01/07 02:38:59;;;;;;;8.50;5.50;;;;;;;-4.09;68.54;101959.66;105462;1253;73546;-66
2024/01/07 02:41:26;;;;;;;8.50;4.30;;;;;;;-4.12;68.68;101957.00;105411;1257;61340;-66
2024/01/07 02:43:53;;;;;;;9.70;5.40;;;;;;;-4.14;68.84;101959.46;105488;1254;138021;-67
2024/01/07 02:46:20;;;;;;;8.60;5.80;;;;;;;-4.17;68.94;101962.98;105472;1254;74748;-65
2024/01/07 02:48:47;;;;;;;9.70;5.30;;;;;;;-4.26;68.74;101962.89;105330;1257;138313;-64
2024/01/07 02:51:13;;;;;;;6.90;4.70;;;;;;;-4.33;68.91;101967.00;105446;1253;70925;-65
2024/01/07 02:53:40;;;;;;;9.80;5.40;;;;;;;-4.37;69.07;101970.69;105450;1253;61308;-65
2024/01/07 02:56:08;;;;;;;8.50;5.80;;;;;;;-4.40;69.22;101971.20;105490;1257;138991;-67
2024/01/07 02:58:35;;;;;;;9.20;6.20;;;;;;;-4.45;69.30;101971.92;108570;1253;74853;-65
2024/01/07 03:01:02;;;;;;;9.20;5.70;;;;;;;-4.47;69.35;101975.57;108900;1253;138537;-65
2024/01/07 03:03:28;;;;;;;10.20;5.40;;;;;;;-4.48;69.46;101973.61;108942;1253;72995;-65
2024/01/07 03:05:55;;;;;;;10.50;6.30;;;;;;;-4.47;69.51;101974.93;108615;1253;59330;-65
2024/01/07 03:08:21;;;;;;;8.90;6.00;;;;;;;-4.43;69.78;101971.13;105404;1253;138018;-60
2024/01/07 03:10:48;;;;;;;8.50;5.80;;;;;;;-4.35;69.89;101973.42;105492;1253;75182;-60
2024/01/07 03:13:15;;;;;;;10.70;6.10;;;;;;;-4.34;69.80;101968.27;105416;1256;137852;-58
2024/01/07 03:15:41;;;;;;;11.00;5.80;;;;;;;-4.34;69.81;101968.30;105505;1253;73576;-64
2024/01/07 03:18:08;;;;;;;11.50;5.70;;;;;;;-4.32;69.64;101967.46;105493;1257;61378;-66
2024/01/07 03:20:35;;;;;;;12.90;6.30;;;;;;;-4.34;69.56;101972.07;108979;1253;137628;-64
2024/01/07 03:23:01;;;;;;;9.60;5.60;;;;;;;-4.33;69.49;101971.58;109189;1259;73424;-65
2024/01/07 03:25:28;;;;;;;9.20;6.10;;;;;;;-4.31;69.50;101973.90;109187;1254;138086;-65
2024/01/07 03:27:55;;;;;;;17.90;9.80;;;;;;;-4.30;69.44;101975.14;109285;1253;71808;-64
2024/01/07 03:30:21;;;;;;;26.40;12.90;;;;;;;-4.31;69.21;101978.17;109241;1253;138878;-64
2024/01/07 03:32:48;;;;;;;11.80;6.80;;;;;;;-4.32;69.10;101977.54;109359;1252;61394;-65
2024/01/07 03:35:15;;;;;;;11.70;6.70;;;;;;;-4.34;69.00;101980.92;109391;1253;74440;-65
2024/01/07 03:37:41;;;;;;;8.50;5.50;;;;;;;-4.35;68.88;101980.83;109277;1253;138394;-64
2024/01/07 03:40:14;;;;;;;9.10;5.90;;;;;;;-4.38;68.80;101983.06;109251;1253;71001;-65
2024/01/07 03:42:40;;;;;;;11.00;6.10;;;;;;;-4.41;68.60;101986.73;109253;1252;138287;-64
2024/01/07 03:45:07;;;;;;;10.70;6.30;;;;;;;-4.45;68.53;101994.33;109354;1253;59645;-65
2024/01/07 03:47:34;;;;;;;9.80;5.90;;;;;;;-4.48;68.57;101991.64;108017;1256;75405;-65
2024/01/07 03:50:00;;;;;;;10.30;5.80;;;;;;;-4.47;68.65;101991.35;105724;1256;138634;-67
2024/01/07 03:52:28;;;;;;;13.40;5.70;;;;;;;-4.48;68.56;101998.27;105814;1254;73507;-66
2024/01/07 03:54:55;;;;;;;8.80;5.60;;;;;;;-4.49;68.54;101997.84;105639;1255;139207;-66
2024/01/07 03:57:22;;;;;;;10.40;5.70;;;;;;;-4.50;68.69;101999.10;105639;1254;61366;-66
2024/01/07 03:59:48;;;;;;;13.80;6.20;;;;;;;-4.52;68.69;101998.13;105675;1256;73248;-66
2024/01/07 04:02:16;;;;;;;9.60;6.20;;;;;;;-4.52;68.50;101996.73;105406;1257;137713;-65
2024/01/07 04:04:43;;;;;;;9.70;5.70;;;;;;;-4.53;68.56;102002.06;105672;1253;75225;-66
2024/01/07 04:07:10;;;;;;;12.40;6.50;;;;;;;-4.54;68.57;102003.92;105545;1256;138311;-67
2024/01/07 04:09:37;;;;;;;10.00;6.30;;;;;;;-4.53;68.56;102000.35;105723;1253;61413;-67
2024/01/07 04:12:04;;;;;;;9.00;5.70;;;;;;;-4.52;68.76;102001.02;105919;1254;72221;-67
2024/01/07 04:14:33;;;;;;;12.00;6.40;;;;;;;-4.48;68.78;102001.88;105762;1255;138282;-67
2024/01/07 04:17:00;;;;;;;9.60;6.00;;;;;;;-4.47;68.82;102007.00;109384;1251;74018;-65
2024/01/07 04:19:27;;;;;;;10.30;5.70;;;;;;;-4.49;68.65;102004.41;105914;1253;137907;-66
2024/01/07 04:21:53;;;;;;;12.20;6.60;;;;;;;-4.53;68.49;102005.46;105675;1254;61240;-59
2024/01/07 04:24:20;;;;;;;11.40;6.20;;;;;;;-4.56;68.56;102006.05;105621;1255;138075;-59
2024/01/07 04:26:47;;;;;;;10.80;6.80;;;;;;;-4.56;68.55;102009.09;105709;1256;67259;-60
2024/01/07 04:29:13;;;;;;;12.60;6.00;;;;;;;-4.56;68.58;102005.72;105683;1254;70515;-60
2024/01/07 04:31:40;;;;;;;10.20;6.40;;;;;;;-4.55;68.68;102006.70;105592;1254;138393;-59
2024/01/07 04:34:07;;;;;;;9.20;5.70;;;;;;;-4.52;68.89;102008.52;105729;1255;61144;-59
2024/01/07 04:36:33;;;;;;;10.10;5.80;;;;;;;-4.51;68.63;102008.94;105541;1253;138496;-60
2024/01/07 04:39:00;;;;;;;9.00;5.50;;;;;;;-4.52;68.68;102006.79;105566;1252;65626;-59
2024/01/07 04:41:27;;;;;;;11.20;5.80;;;;;;;-4.56;68.69;102008.48;105662;1253;73661;-60
2024/01/07 04:43:53;;;;;;;9.50;5.90;;;;;;;-4.60;68.68;102008.27;105530;1253;139888;-60
2024/01/07 04:46:20;;;;;;;11.30;6.10;;;;;;;-4.61;68.63;102015.00;105680;1256;61233;-59
2024/01/07 04:48:46;;;;;;;13.40;6.60;;;;;;;-4.61;68.76;102019.91;105665;1254;138591;-60
2024/01/07 04:51:13;;;;;;;10.10;6.40;;;;;;;-4.61;68.78;102019.55;105805;1256;65675;-60
2024/01/07 04:53:40;;;;;;;10.90;6.70;;;;;;;-4.62;68.91;102022.57;105867;1254;73332;-59
2024/01/07 04:56:06;;;;;;;10.10;6.70;;;;;;;-4.65;68.66;102027.33;105480;1254;138203;-60
2024/01/07 04:58:33;;;;;;;11.10;5.90;;;;;;;-4.72;68.67;102021.19;105822;1256;61154;-60
2024/01/07 05:01:00;;;;;;;8.60;6.00;;;;;;;-4.73;68.65;102022.54;105519;1254;138025;-59
2024/01/07 05:03:27;;;;;;;10.60;6.20;;;;;;;-4.78;68.61;102019.96;105725;1256;66943;-62
2024/01/07 05:05:54;;;;;;;11.40;7.00;;;;;;;-4.84;68.43;102025.52;105748;1256;72699;-58
2024/01/07 05:08:21;;;;;;;12.50;6.70;;;;;;;-5.01;68.07;102031.45;105567;1255;138558;-60
2024/01/07 05:10:47;;;;;;;10.30;6.20;;;;;;;-5.17;68.18;102037.79;105723;1255;62325;-58
2024/01/07 05:13:14;;;;;;;11.00;6.20;;;;;;;-5.25;68.29;102040.66;105556;1251;138130;-59
2024/01/07 05:15:41;;;;;;;11.10;6.40;;;;;;;-5.32;68.24;102048.48;105732;1253;65606;-59
2024/01/07 05:18:09;;;;;;;9.70;6.40;;;;;;;-5.40;68.31;102052.56;105526;1257;73341;-60
2024/01/07 05:20:36;;;;;;;13.60;7.60;;;;;;;-5.55;68.09;102051.76;105574;1253;137921;-59
2024/01/07 05:23:02;;;;;;;10.90;6.70;;;;;;;-5.66;68.17;102057.09;105647;1253;61365;-59
2024/01/07 05:25:29;;;;;;;14.70;7.60;;;;;;;-5.75;68.15;102059.85;105643;1254;138750;-60
2024/01/07 05:27:56;;;;;;;12.60;6.60;;;;;;;-5.81;68.20;102068.06;105738;1254;65245;-60
2024/01/07 05:30:22;;;;;;;11.80;6.70;;;;;;;-5.88;68.16;102069.66;105488;1256;138145;-61
2024/01/07 05:32:49;;;;;;;14.40;7.30;;;;;;;-5.99;68.07;102077.45;105751;1256;61295;-61
2024/01/07 05:35:16;;;;;;;14.00;6.70;;;;;;;-6.06;68.05;102076.73;105925;1256;61292;-59
2024/01/07 05:37:42;;;;;;;14.10;7.70;;;;;;;-6.12;68.02;102073.30;105750;1253;137999;-59
2024/01/07 05:40:10;;;;;;;10.30;5.80;;;;;;;-6.21;68.02;102088.19;105726;1255;65648;-59
2024/01/07 05:42:36;;;;;;;12.10;6.90;;;;;;;-6.37;67.57;102085.59;105586;1253;137990;-60
2024/01/07 05:45:03;;;;;;;13.20;6.80;;;;;;;-6.46;67.81;102090.69;105819;1252;61323;-59
2024/01/07 05:47:30;;;;;;;12.50;6.80;;;;;;;-6.47;68.10;102092.64;105783;1256;61829;-60
2024/01/07 05:49:57;;;;;;;13.00;7.10;;;;;;;-6.49;67.99;102094.30;105503;1254;138138;-58
2024/01/07 05:52:24;;;;;;;13.30;7.20;;;;;;;-6.52;67.98;102099.52;105841;1253;65579;-59
2024/01/07 05:54:50;;;;;;;14.80;6.60;;;;;;;-6.55;67.91;102100.04;105587;1253;140126;-58
2024/01/07 05:57:17;;;;;;;12.20;6.90;;;;;;;-6.54;68.00;102098.61;105673;1252;62145;-62
2024/01/07 05:59:44;;;;;;;11.90;6.60;;;;;;;-6.56;67.96;102097.55;105714;1253;61665;-59
2024/01/07 06:02:12;;;;;;;10.30;6.40;;;;;;;-6.56;67.83;102110.26;108885;1252;139510;-59
2024/01/07 06:04:39;;;;;;;12.50;6.40;;;;;;;-6.55;67.94;102109.30;109353;1251;64675;-59
2024/01/07 06:07:06;;;;;;;10.80;6.60;;;;;;;-6.55;67.72;102112.00;109167;1253;139315;-59
2024/01/07 06:09:32;;;;;;;10.40;6.30;;;;;;;-6.52;67.93;102113.21;109362;1252;60910;-59
2024/01/07 06:11:59;;;;;;;10.90;6.00;;;;;;;-6.54;67.44;102116.54;109360;1252;59136;-59
2024/01/07 06:14:25;;;;;;;13.00;6.70;;;;;;;-6.57;67.53;102116.04;109252;1252;139692;-59
2024/01/07 06:16:52;;;;;;;12.90;6.70;;;;;;;-6.55;67.67;102120.71;107561;1256;66832;-60
2024/01/07 06:19:19;;;;;;;10.60;6.40;;;;;;;-6.54;67.56;102119.66;105609;1251;139138;-59
2024/01/07 06:21:46;;;;;;;11.60;6.40;;;;;;;-6.54;67.37;102120.31;105564;1257;61253;-61
2024/01/07 06:24:12;;;;;;;10.30;6.20;;;;;;;-6.56;67.37;102124.67;105538;1253;138732;-61
2024/01/07 06:26:40;;;;;;;9.70;5.90;;;;;;;-6.55;67.43;102122.25;105728;1254;75725;-60
2024/01/07 06:29:09;;;;;;;11.00;6.60;;;;;;;-6.58;67.42;102123.14;105675;1253;66790;-58
2024/01/07 06:31:36;;;;;;;12.10;6.60;;;;;;;-6.64;67.20;102131.02;109262;1252;138810;-58
2024/01/07 06:34:02;;;;;;;11.70;6.10;;;;;;;-6.71;67.26;102133.43;109299;1252;58948;-58
2024/01/07 06:36:29;;;;;;;10.00;6.20;;;;;;;-6.72;67.49;102139.41;109306;1251;138860;-58
2024/01/07 06:38:56;;;;;;;11.20;6.60;;;;;;;-6.68;67.47;102138.44;109348;1252;75609;-59
2024/01/07 06:41:22;;;;;;;10.60;7.00;;;;;;;-6.65;67.58;102137.91;109356;1253;64419;-58
2024/01/07 06:43:49;;;;;;;11.70;6.60;;;;;;;-6.72;67.01;102136.17;106310;1256;138891;-60
2024/01/07 06:46:16;;;;;;;11.10;6.60;;;;;;;-6.80;67.25;102137.52;105756;1256;61322;-59
2024/01/07 06:48:43;;;;;;;10.30;6.00;;;;;;;-6.83;67.16;102142.12;105614;1256;139486;-59
2024/01/07 06:51:10;;;;;;;11.40;6.70;;;;;;;-6.87;67.14;102146.06;105742;1253;73944;-60
2024/01/07 06:53:36;;;;;;;14.00;7.60;;;;;;;-6.93;67.12;102152.23;105600;1253;65805;-61
2024/01/07 06:56:03;;;;;;;11.60;7.10;;;;;;;-6.96;67.26;102152.99;105630;1254;139277;-60
2024/01/07 06:58:32;;;;;;;13.50;7.50;;;;;;;-7.00;67.29;102156.38;105945;1253;61243;-61
2024/01/07 07:00:58;;;;;;;16.20;7.90;;;;;;;-7.04;67.19;102159.27;105604;1254;139165;-60
2024/01/07 07:03:25;;;;;;;14.10;8.80;;;;;;;-6.99;67.51;102162.73;105629;1256;75534;-61
2024/01/07 07:05:52;;;;;;;15.20;9.70;;;;;;;-6.98;67.52;102165.11;108902;1254;67082;-58
2024/01/07 07:08:19;;;;;;;17.70;9.70;;;;;;;-6.98;67.33;102169.67;109293;1252;138771;-59
2024/01/07 07:10:46;;;;;;;17.40;10.60;;;;;;;-7.07;67.09;102169.40;109375;1252;59641;-63
2024/01/07 07:13:12;;;;;;;19.10;11.10;;;;;;;-7.15;67.04;102171.56;109244;1252;138959;-63
2024/01/07 07:15:39;;;;;;;19.70;11.50;;;;;;;-7.26;66.95;102173.08;109355;1251;72842;-64
2024/01/07 07:18:05;;;;;;;17.00;11.20;;;;;;;-7.34;67.10;102179.48;109246;1253;67216;-64
2024/01/07 07:20:32;;;;;;;18.80;11.40;;;;;;;-7.42;67.11;102183.48;109294;1252;138768;-64
2024/01/07 07:22:59;;;;;;;17.90;11.70;;;;;;;-7.57;66.84;102189.53;109335;1252;60611;-64
2024/01/07 07:25:25;;;;;;;22.10;13.00;;;;;;;-7.73;66.88;102191.20;109168;1253;139336;-63
2024/01/07 07:27:52;;;;;;;22.10;13.70;;;;;;;-7.87;66.99;102197.52;109350;1253;75817;-63
2024/01/07 07:30:19;;;;;;;24.50;12.90;;;;;;;-7.94;67.09;102198.19;109253;1253;138970;-63
2024/01/07 07:32:45;;;;;;;24.30;13.60;;;;;;;-7.98;67.23;102201.27;109396;1252;73734;-68
2024/01/07 07:35:12;;;;;;;23.90;14.30;;;;;;;-7.99;67.51;102199.45;107319;1254;61372;-69
2024/01/07 07:37:39;;;;;;;25.80;14.70;;;;;;;-7.91;67.55;102197.16;105598;1253;138728;-68
2024/01/07 07:40:06;;;;;;;23.50;13.70;;;;;;;-7.88;67.80;102196.71;105741;1253;73815;-70
2024/01/07 07:42:33;;;;;;;22.80;14.20;;;;;;;-7.82;67.22;102199.75;108029;1253;139127;-68
2024/01/07 07:45:00;;;;;;;30.20;14.80;;;;;;;-7.78;67.44;102198.70;105613;1256;71513;-70
2024/01/07 07:47:27;;;;;;;26.80;14.70;;;;;;;-7.69;67.77;102201.85;105659;1255;61385;-65
2024/01/07 07:49:53;;;;;;;22.50;14.00;;;;;;;-7.67;67.52;102198.93;105514;1253;139415;-65
2024/01/07 07:52:23;;;;;;;21.50;13.60;;;;;;;-7.71;67.39;102198.73;105587;1251;74888;-65
2024/01/07 07:54:50;;;;;;;22.60;15.20;;;;;;;-7.79;67.31;102200.34;105608;1253;139173;-65
2024/01/07 07:57:16;;;;;;;22.30;14.70;;;;;;;-7.82;67.67;102211.02;105677;1256;73254;-65
2024/01/07 07:59:43;;;;;;;27.70;16.00;;;;;;;-7.88;67.22;102220.69;109018;1253;59941;-63
2024/01/07 08:02:10;;;;;;;27.70;16.00;;;;;;;-7.89;67.34;102220.42;109167;1257;138966;-64
2024/01/07 08:04:36;;;;;;;26.40;14.50;;;;;;;-7.83;67.36;102225.09;109371;1251;73848;-65
2024/01/07 08:07:03;;;;;;;20.70;13.30;;;;;;;-7.80;67.15;102229.14;109273;1253;138728;-63
2024/01/07 08:09:30;;;;;;;23.80;13.30;;;;;;;-7.89;67.03;102232.20;109285;1253;74438;-63
2024/01/07 08:11:56;;;;;;;27.70;15.00;;;;;;;-8.03;66.69;102232.48;109240;1252;59164;-63
2024/01/07 08:14:23;;;;;;;23.20;13.50;;;;;;;-8.13;66.96;102234.19;109286;1252;139447;-64
2024/01/07 08:16:50;;;;;;;25.10;12.80;;;;;;;-8.19;67.06;102241.29;109371;1253;73426;-64
2024/01/07 08:19:16;;;;;;;21.90;12.60;;;;;;;-8.26;66.73;102246.77;109315;1252;139016;-64
2024/01/07 08:21:43;;;;;;;21.00;11.70;;;;;;;-8.30;67.12;102253.57;109388;1252;73147;-64
2024/01/07 08:24:11;;;;;;;22.20;12.10;;;;;;;-8.30;67.10;102259.73;109066;1253;58928;-64
2024/01/07 08:26:38;;;;;;;20.70;12.20;;;;;;;-8.28;67.18;102262.63;106546;1253;61238;-64
2024/01/07 08:29:05;;;;;;;22.70;13.10;;;;;;;-8.23;67.24;102268.70;105629;1251;74192;-64
2024/01/07 08:31:31;;;;;;;27.20;14.20;;;;;;;-8.17;67.34;102265.23;105688;1253;139803;-66
2024/01/07 08:33:58;;;;;;;25.40;13.60;;;;;;;-8.08;67.42;102270.02;105798;1256;73902;-65
2024/01/07 08:36:25;;;;;;;26.60;13.20;;;;;;;-8.00;67.55;102268.88;108710;1252;139533;-63
2024/01/07 08:38:52;;;;;;;22.60;11.30;;;;;;;-7.90;67.57;102276.88;109169;1252;61622;-63
2024/01/07 08:41:20;;;;;;;21.10;12.20;;;;;;;-7.87;67.43;102273.35;109172;1253;74326;-63
2024/01/07 08:43:49;;;;;;;20.30;10.70;;;;;;;-7.77;67.31;102278.60;108908;1253;138848;-64
2024/01/07 08:46:22;;;;;;;21.80;10.50;;;;;;;-7.75;67.17;102282.58;109004;1253;73808;-64
2024/01/07 08:48:50;;;;;;;28.60;13.80;;;;;;;-7.76;67.12;102285.70;108608;1253;139111;-65
2024/01/07 08:51:30;;;;;;;31.70;14.60;;;;;;;-7.74;67.10;102287.45;109046;1252;59134;-64
2024/01/07 08:53:58;;;;;;;29.10;13.40;;;;;;;-7.63;67.20;102286.27;108820;1253;74719;-64
2024/01/07 08:56:25;;;;;;;39.20;16.70;;;;;;;-7.55;67.11;102287.27;109050;1255;139379;-64
2024/01/07 08:58:52;;;;;;;26.10;13.60;;;;;;;-7.52;67.36;102288.16;109113;1255;72886;-63
2024/01/07 09:01:19;;;;;;;26.80;12.80;;;;;;;-7.51;66.84;102290.06;108940;1253;138799;-63
2024/01/07 09:03:45;;;;;;;29.50;13.70;;;;;;;-7.51;66.82;102287.79;109262;1253;59173;-64
2024/01/07 09:06:12;;;;;;;17.40;10.10;;;;;;;-7.49;66.73;102288.65;109264;1252;75347;-59
2024/01/07 09:08:39;;;;;;;19.70;11.10;;;;;;;-7.50;66.74;102290.65;109291;1252;64699;-59
2024/01/07 09:11:06;;;;;;;27.40;12.80;;;;;;;-7.49;66.46;102293.39;109328;1252;71871;-60
2024/01/07 09:13:33;;;;;;;23.00;11.90;;;;;;;-7.50;66.36;102293.14;109127;1251;139239;-58
2024/01/07 09:16:00;;;;;;;20.30;11.50;;;;;;;-7.43;66.42;102295.53;109298;1252;59616;-59
2024/01/07 09:18:26;;;;;;;23.30;13.00;;;;;;;-7.20;66.77;102293.30;109273;1251;139627;-58
2024/01/07 09:20:53;;;;;;;25.40;12.00;;;;;;;-7.00;66.56;102291.95;109368;1253;64627;-58
2024/01/07 09:23:20;;;;;;;21.80;11.40;;;;;;;-6.79;66.69;102288.98;109280;1253;70531;-61
2024/01/07 09:25:46;;;;;;;22.00;11.90;;;;;;;-6.56;66.72;102291.33;109000;1253;139414;-64
2024/01/07 09:28:13;;;;;;;30.80;16.10;;;;;;;-6.47;66.36;102289.85;109084;1252;61199;-63
2024/01/07 09:30:40;;;;;;;60.30;23.90;;;;;;;-6.33;66.31;102286.20;105878;1252;139029;-67
2024/01/07 09:33:07;;;;;;;43.80;19.20;;;;;;;-6.24;66.31;102289.17;105602;1253;65467;-61
2024/01/07 09:35:34;;;;;;;47.30;22.20;;;;;;;-6.13;66.07;102289.69;105537;1254;73696;-59
2024/01/07 09:38:01;;;;;;;27.80;14.60;;;;;;;-6.08;66.10;102285.86;105312;1256;139161;-63
2024/01/07 09:40:27;;;;;;;27.50;12.70;;;;;;;-6.07;66.07;102284.06;105201;1256;205556;-60
2024/01/07 09:42:55;;;;;;;25.80;12.90;;;;;;;-6.16;65.74;102286.27;105330;1256;139423;-59
2024/01/07 09:45:22;;;;;;;24.20;14.80;;;;;;;-6.24;65.68;102286.36;105314;1257;66922;-60
2024/01/07 09:47:49;;;;;;;28.10;13.10;;;;;;;-6.24;65.76;102278.92;109031;1252;72494;-58
2024/01/07 09:50:16;;;;;;;26.90;13.50;;;;;;;-6.26;65.75;102279.33;108981;1253;138610;-64
2024/01/07 09:52:43;;;;;;;21.40;11.70;;;;;;;-6.31;65.84;102282.61;109073;1253;61329;-64
2024/01/07 09:55:12;;;;;;;20.90;12.40;;;;;;;-6.33;65.78;102283.46;108985;1252;138578;-64
2024/01/07 09:57:40;;;;;;;20.70;11.70;;;;;;;-6.32;65.88;102282.17;109073;1252;65700;-64
2024/01/07 10:00:07;;;;;;;20.90;11.50;;;;;;;-6.24;66.04;102283.69;109051;1253;71470;-59
2024/01/07 10:02:35;;;;;;;19.10;9.90;;;;;;;-6.27;65.91;102282.86;108993;1252;138914;-60
2024/01/07 10:05:02;;;;;;;19.80;10.80;;;;;;;-6.30;65.98;102282.16;109199;1251;60514;-64
2024/01/07 10:07:29;;;;;;;20.90;11.90;;;;;;;-6.31;65.79;102284.73;109214;1252;138929;-64
2024/01/07 10:09:55;;;;;;;20.50;11.40;;;;;;;-6.37;65.64;102284.02;106788;1254;65837;-66
2024/01/07 10:12:23;;;;;;;21.50;11.40;;;;;;;-6.43;65.71;102280.55;105519;1256;140027;-64
2024/01/07 10:14:49;;;;;;;20.40;11.40;;;;;;;-6.42;65.65;102280.48;105593;1256;61212;-63
2024/01/07 10:17:16;;;;;;;20.60;11.90;;;;;;;-6.48;65.78;102278.73;105601;1253;61269;-63
2024/01/07 10:19:46;;;;;;;32.20;14.50;;;;;;;-6.52;65.72;102280.06;109022;1253;138812;-64
2024/01/07 10:22:14;;;;;;;31.50;13.30;;;;;;;-6.63;65.46;102282.52;109162;1252;64324;-64
2024/01/07 10:24:41;;;;;;;23.60;10.00;;;;;;;-6.74;65.72;102279.40;108991;1253;139173;-64
2024/01/07 10:27:08;;;;;;;17.50;10.90;;;;;;;-6.75;65.86;102280.98;109036;1253;59304;-65
2024/01/07 10:29:35;;;;;;;62.30;20.50;;;;;;;-6.67;66.14;102280.20;109145;1252;61570;-66
2024/01/07 10:32:03;;;;;;;39.60;16.20;;;;;;;-6.56;66.07;102283.29;109063;1253;138958;-65
2024/01/07 10:34:36;;;;;;;28.90;15.40;;;;;;;-6.57;65.85;102287.61;109130;1253;65803;-64
2024/01/07 10:37:04;;;;;;;25.90;13.40;;;;;;;-6.62;65.76;102287.90;108894;1253;139130;-64
2024/01/07 10:39:31;;;;;;;22.10;10.70;;;;;;;-6.63;65.87;102285.41;109152;1252;60713;-64
2024/01/07 10:41:58;;;;;;;22.30;12.40;;;;;;;-6.60;65.66;102283.38;109048;1254;59323;-64
2024/01/07 10:44:30;;;;;;;16.60;10.30;;;;;;;-6.60;65.68;102282.67;109072;1253;138896;-65
2024/01/07 10:46:56;;;;;;;19.90;11.40;;;;;;;-6.63;65.70;102280.08;105780;1254;64817;-60
2024/01/07 10:49:24;;;;;;;21.10;10.40;;;;;;;-6.62;65.62;102282.60;105585;1253;139065;-60
2024/01/07 10:51:57;;;;;;;21.80;11.00;;;;;;;-6.68;65.38;102274.64;105743;1253;61263;-62
2024/01/07 10:54:24;;;;;;;21.90;9.70;;;;;;;-6.73;65.44;102274.34;105463;1256;139061;-59
2024/01/07 10:56:51;;;;;;;17.40;10.10;;;;;;;-6.73;65.45;102278.77;105487;1254;73502;-59
2024/01/07 10:59:18;;;;;;;19.30;11.60;;;;;;;-6.79;65.45;102279.55;105405;1259;67248;-68
2024/01/07 11:01:44;;;;;;;15.40;8.70;;;;;;;-6.82;65.75;102270.73;105483;1256;139132;-69
2024/01/07 11:04:15;;;;;;;14.80;8.30;;;;;;;-6.85;65.41;102274.95;105575;1254;61372;-69